Honolulu Airport (HNL)

 

Airport Diagram
Current Weather/Forecast (VFR Conditions)
METAR PHNL 220753Z 34004KT 10SM FEW025 SCT040 BKN060 24/22 A2994 RMK AO2 RAE26 SLP140 P0001 T02440222 $
TAF PHNL 220520Z 2206/2312 VRB05KT P6SM VCSH SCT020 OVC050 TEMPO 2206/2208 3SM SHRA BR BKN020 OVC050 FM220800 VRB03KT P6SM VCSH SCT020 BKN040 TEMPO 2208/2210 SHRA BKN020 FM222200 18009KT P6SM VCSH SCT025 BKN050 FM230300 VRB05KT 6SM SHRA SCT025 BKN050 FM230900 VRB03KT P6SM VCSH FEW025 SCT050

All Charts

Inbound Traffic (Arrivals)

No inbound traffic.


Outbound Traffic (Departures)

No outbound traffic.